sensor_id;sensor_type;location;lat;lon;timestamp;pressure;altitude;pressure_sealevel;temperature;humidity
65173;BME280;69059;52.218;5.172;2023-10-13T00:02:07;99005.25;;;16.49;100.00
65173;BME280;69059;52.218;5.172;2023-10-13T00:04:35;98979.47;;;16.56;100.00
65173;BME280;69059;52.218;5.172;2023-10-13T00:07:03;98971.56;;;16.51;100.00
65173;BME280;69059;52.218;5.172;2023-10-13T00:09:35;98942.59;;;16.56;100.00
65173;BME280;69059;52.218;5.172;2023-10-13T00:12:04;98931.00;;;16.52;100.00
65173;BME280;69059;52.218;5.172;2023-10-13T00:14:36;98951.28;;;16.52;100.00
65173;BME280;69059;52.218;5.172;2023-10-13T00:17:05;98953.38;;;16.49;100.00
65173;BME280;69059;52.218;5.172;2023-10-13T00:19:35;98954.69;;;16.47;100.00
65173;BME280;69059;52.218;5.172;2023-10-13T00:22:12;98967.34;;;16.50;100.00
65173;BME280;69059;52.218;5.172;2023-10-13T00:24:43;98965.75;;;16.49;100.00
65173;BME280;69059;52.218;5.172;2023-10-13T00:27:12;98973.66;;;16.49;100.00
65173;BME280;69059;52.218;5.172;2023-10-13T00:29:56;98957.59;;;16.51;100.00
65173;BME280;69059;52.218;5.172;2023-10-13T00:32:48;98967.34;;;16.45;100.00
65173;BME280;69059;52.218;5.172;2023-10-13T00:35:21;98963.38;;;16.42;100.00
65173;BME280;69059;52.218;5.172;2023-10-13T00:37:54;98972.88;;;16.43;100.00
65173;BME280;69059;52.218;5.172;2023-10-13T00:40:23;98971.53;;;16.41;100.00
65173;BME280;69059;52.218;5.172;2023-10-13T00:43:18;98970.50;;;16.42;100.00
65173;BME280;69059;52.218;5.172;2023-10-13T00:46:05;98967.59;;;16.43;100.00
65173;BME280;69059;52.218;5.172;2023-10-13T00:48:35;98969.97;;;16.40;100.00
65173;BME280;69059;52.218;5.172;2023-10-13T00:51:09;98964.69;;;16.50;100.00
65173;BME280;69059;52.218;5.172;2023-10-13T00:53:42;98963.41;;;16.53;100.00
65173;BME280;69059;52.218;5.172;2023-10-13T00:56:11;98954.16;;;16.60;100.00
65173;BME280;69059;52.218;5.172;2023-10-13T00:58:45;98939.44;;;16.54;100.00
65173;BME280;69059;52.218;5.172;2023-10-13T01:01:17;98939.94;;;16.61;100.00
65173;BME280;69059;52.218;5.172;2023-10-13T01:03:45;98937.06;;;16.58;100.00
65173;BME280;69059;52.218;5.172;2023-10-13T01:06:15;98932.06;;;16.46;100.00
65173;BME280;69059;52.218;5.172;2023-10-13T01:08:44;98929.94;;;16.53;100.00
65173;BME280;69059;52.218;5.172;2023-10-13T01:11:14;98927.03;;;16.44;100.00
65173;BME280;69059;52.218;5.172;2023-10-13T01:13:41;98916.22;;;16.61;100.00
65173;BME280;69059;52.218;5.172;2023-10-13T01:16:08;98909.66;;;16.59;100.00
65173;BME280;69059;52.218;5.172;2023-10-13T01:18:41;98904.13;;;16.50;100.00
65173;BME280;69059;52.218;5.172;2023-10-13T01:21:15;98892.00;;;16.49;100.00
65173;BME280;69059;52.218;5.172;2023-10-13T01:23:44;98888.84;;;16.42;100.00
65173;BME280;69059;52.218;5.172;2023-10-13T01:26:13;98883.81;;;16.35;100.00
65173;BME280;69059;52.218;5.172;2023-10-13T01:28:47;98876.72;;;16.41;100.00
65173;BME280;69059;52.218;5.172;2023-10-13T01:31:14;98874.34;;;16.39;100.00
65173;BME280;69059;52.218;5.172;2023-10-13T01:33:51;98870.41;;;16.37;100.00
65173;BME280;69059;52.218;5.172;2023-10-13T01:36:21;98864.59;;;16.35;100.00
65173;BME280;69059;52.218;5.172;2023-10-13T01:38:50;98876.47;;;16.37;100.00
65173;BME280;69059;52.218;5.172;2023-10-13T01:41:18;98878.31;;;16.42;100.00
65173;BME280;69059;52.218;5.172;2023-10-13T01:43:46;98883.31;;;16.43;100.00
65173;BME280;69059;52.218;5.172;2023-10-13T01:46:12;98874.34;;;16.39;100.00
65173;BME280;69059;52.218;5.172;2023-10-13T01:48:41;98888.84;;;16.37;100.00
65173;BME280;69059;52.218;5.172;2023-10-13T01:51:09;98882.25;;;16.34;100.00
65173;BME280;69059;52.218;5.172;2023-10-13T01:53:37;98885.16;;;16.43;100.00
65173;BME280;69059;52.218;5.172;2023-10-13T01:56:06;98888.59;;;16.43;100.00
65173;BME280;69059;52.218;5.172;2023-10-13T01:58:37;98879.63;;;16.49;100.00
65173;BME280;69059;52.218;5.172;2023-10-13T02:01:04;98884.66;;;16.46;100.00
65173;BME280;69059;52.218;5.172;2023-10-13T02:03:34;98887.53;;;16.44;100.00
65173;BME280;69059;52.218;5.172;2023-10-13T02:06:07;98880.16;;;16.41;100.00
65173;BME280;69059;52.218;5.172;2023-10-13T02:08:37;98879.38;;;16.41;100.00
65173;BME280;69059;52.218;5.172;2023-10-13T02:11:08;98878.31;;;16.47;100.00
65173;BME280;69059;52.218;5.172;2023-10-13T02:13:35;98870.94;;;16.49;100.00
65173;BME280;69059;52.218;5.172;2023-10-13T02:16:08;98879.88;;;16.53;100.00
65173;BME280;69059;52.218;5.172;2023-10-13T02:18:38;98875.69;;;16.42;100.00
65173;BME280;69059;52.218;5.172;2023-10-13T02:21:09;98871.97;;;16.38;100.00
65173;BME280;69059;52.218;5.172;2023-10-13T02:23:40;98872.25;;;16.36;100.00
65173;BME280;69059;52.218;5.172;2023-10-13T02:26:12;98861.97;;;16.40;100.00
65173;BME280;69059;52.218;5.172;2023-10-13T02:28:41;98865.94;;;16.42;100.00
65173;BME280;69059;52.218;5.172;2023-10-13T02:31:08;98860.38;;;16.49;100.00
65173;BME280;69059;52.218;5.172;2023-10-13T02:33:38;98850.13;;;16.47;100.00
65173;BME280;69059;52.218;5.172;2023-10-13T02:36:11;98850.13;;;16.47;100.00
65173;BME280;69059;52.218;5.172;2023-10-13T02:38:39;98839.59;;;16.37;100.00
65173;BME280;69059;52.218;5.172;2023-10-13T02:41:14;98842.25;;;16.42;100.00
65173;BME280;69059;52.218;5.172;2023-10-13T02:43:47;98835.63;;;16.35;100.00
65173;BME280;69059;52.218;5.172;2023-10-13T02:46:13;98837.50;;;16.29;100.00
65173;BME280;69059;52.218;5.172;2023-10-13T02:48:43;98826.69;;;16.41;100.00
65173;BME280;69059;52.218;5.172;2023-10-13T02:51:12;98825.66;;;16.32;100.00
65173;BME280;69059;52.218;5.172;2023-10-13T02:53:44;98832.50;;;16.33;100.00
65173;BME280;69059;52.218;5.172;2023-10-13T02:56:15;98816.44;;;16.44;100.00
65173;BME280;69059;52.218;5.172;2023-10-13T02:58:47;98821.94;;;16.23;100.00
65173;BME280;69059;52.218;5.172;2023-10-13T03:01:19;98813.53;;;16.21;100.00
65173;BME280;69059;52.218;5.172;2023-10-13T03:03:49;98808.25;;;16.16;100.00
65173;BME280;69059;52.218;5.172;2023-10-13T03:06:23;98789.28;;;16.34;100.00
65173;BME280;69059;52.218;5.172;2023-10-13T03:08:59;98781.94;;;16.21;100.00
65173;BME280;69059;52.218;5.172;2023-10-13T03:11:41;98785.63;;;16.15;100.00
65173;BME280;69059;52.218;5.172;2023-10-13T03:14:14;98776.41;;;16.12;100.00
65173;BME280;69059;52.218;5.172;2023-10-13T03:16:51;98771.41;;;16.16;100.00
65173;BME280;69059;52.218;5.172;2023-10-13T03:19:19;98770.34;;;16.11;100.00
65173;BME280;69059;52.218;5.172;2023-10-13T03:21:46;98764.56;;;16.09;100.00
65173;BME280;69059;52.218;5.172;2023-10-13T03:24:21;98755.09;;;16.13;100.00
65173;BME280;69059;52.218;5.172;2023-10-13T03:27:01;98757.72;;;16.13;100.00
65173;BME280;69059;52.218;5.172;2023-10-13T03:29:35;98745.88;;;16.11;100.00
65173;BME280;69059;52.218;5.172;2023-10-13T03:32:03;98740.09;;;16.14;100.00
65173;BME280;69059;52.218;5.172;2023-10-13T03:34:38;98729.53;;;16.24;100.00
65173;BME280;69059;52.218;5.172;2023-10-13T03:37:16;98712.19;;;16.18;100.00
65173;BME280;69059;52.218;5.172;2023-10-13T03:39:46;98710.59;;;16.12;100.00
65173;BME280;69059;52.218;5.172;2023-10-13T03:42:16;98707.94;;;16.27;100.00
65173;BME280;69059;52.218;5.172;2023-10-13T03:44:45;98701.38;;;16.15;100.00
65173;BME280;69059;52.218;5.172;2023-10-13T03:47:14;98691.88;;;16.24;100.00
65173;BME280;69059;52.218;5.172;2023-10-13T03:49:53;98660.81;;;16.26;100.00
65173;BME280;69059;52.218;5.172;2023-10-13T03:52:41;98651.63;;;16.18;100.00
65173;BME280;69059;52.218;5.172;2023-10-13T03:55:09;98645.84;;;16.11;100.00
65173;BME280;69059;52.218;5.172;2023-10-13T03:57:45;98634.53;;;16.10;100.00
65173;BME280;69059;52.218;5.172;2023-10-13T04:00:16;98622.41;;;16.09;100.00
65173;BME280;69059;52.218;5.172;2023-10-13T04:02:50;98617.72;;;16.06;100.00
65173;BME280;69059;52.218;5.172;2023-10-13T04:05:36;98602.94;;;16.10;100.00
65173;BME280;69059;52.218;5.172;2023-10-13T04:08:08;98613.50;;;16.00;100.00
65173;BME280;69059;52.218;5.172;2023-10-13T04:10:58;98599.28;;;16.01;100.00
65173;BME280;69059;52.218;5.172;2023-10-13T04:13:45;98595.34;;;15.99;100.00
65173;BME280;69059;52.218;5.172;2023-10-13T04:16:30;98596.66;;;15.96;100.00
65173;BME280;69059;52.218;5.172;2023-10-13T04:19:14;98582.47;;;15.87;100.00
65173;BME280;69059;52.218;5.172;2023-10-13T04:21:50;98569.84;;;15.89;100.00
65173;BME280;69059;52.218;5.172;2023-10-13T04:24:40;98563.03;;;15.78;100.00
65173;BME280;69059;52.218;5.172;2023-10-13T04:27:26;98546.69;;;15.86;100.00
65173;BME280;69059;52.218;5.172;2023-10-13T04:30:21;98541.16;;;15.88;100.00
65173;BME280;69059;52.218;5.172;2023-10-13T04:32:54;98503.03;;;15.85;100.00
65173;BME280;69059;52.218;5.172;2023-10-13T04:35:43;98494.88;;;15.87;100.00
65173;BME280;69059;52.218;5.172;2023-10-13T04:38:14;98476.19;;;15.83;100.00
65173;BME280;69059;52.218;5.172;2023-10-13T04:40:46;98470.13;;;15.88;100.00
65173;BME280;69059;52.218;5.172;2023-10-13T04:43:25;98469.59;;;15.91;100.00
65173;BME280;69059;52.218;5.172;2023-10-13T04:46:23;98464.03;;;15.97;100.00
65173;BME280;69059;52.218;5.172;2023-10-13T04:49:21;98458.75;;;16.02;100.00
65173;BME280;69059;52.218;5.172;2023-10-13T04:51:55;98474.81;;;16.06;100.00
65173;BME280;69059;52.218;5.172;2023-10-13T04:54:25;98441.38;;;16.06;100.00
65173;BME280;69059;52.218;5.172;2023-10-13T04:56:59;98472.16;;;16.06;100.00
65173;BME280;69059;52.218;5.172;2023-10-13T04:59:41;98456.06;;;16.18;100.00
65173;BME280;69059;52.218;5.172;2023-10-13T05:02:24;98476.00;;;16.24;100.00
65173;BME280;69059;52.218;5.172;2023-10-13T05:05:12;98470.53;;;16.20;100.00
65173;BME280;69059;52.218;5.172;2023-10-13T05:08:09;98454.44;;;16.22;100.00
65173;BME280;69059;52.218;5.172;2023-10-13T05:10:50;98467.56;;;16.27;100.00
65173;BME280;69059;52.218;5.172;2023-10-13T05:13:35;98460.41;;;16.37;100.00
65173;BME280;69059;52.218;5.172;2023-10-13T05:16:20;98471.97;;;16.41;100.00
65173;BME280;69059;52.218;5.172;2023-10-13T05:19:07;98470.38;;;16.45;100.00
65173;BME280;69059;52.218;5.172;2023-10-13T05:21:52;98484.56;;;16.49;100.00
65173;BME280;69059;52.218;5.172;2023-10-13T05:24:37;98466.63;;;16.52;100.00
65173;BME280;69059;52.218;5.172;2023-10-13T05:27:19;98463.69;;;16.63;100.00
65173;BME280;69059;52.218;5.172;2023-10-13T05:30:04;98481.84;;;16.65;100.00
65173;BME280;69059;52.218;5.172;2023-10-13T05:32:50;98450.75;;;16.67;100.00
65173;BME280;69059;52.218;5.172;2023-10-13T05:35:36;98461.28;;;16.62;100.00
65173;BME280;69059;52.218;5.172;2023-10-13T05:38:22;98444.69;;;16.61;100.00
65173;BME280;69059;52.218;5.172;2023-10-13T05:41:07;98462.09;;;16.62;100.00
65173;BME280;69059;52.218;5.172;2023-10-13T05:44:01;98464.19;;;16.60;100.00
65173;BME280;69059;52.218;5.172;2023-10-13T05:46:46;98453.16;;;16.58;100.00
65173;BME280;69059;52.218;5.172;2023-10-13T05:49:28;98435.53;;;16.54;100.00
65173;BME280;69059;52.218;5.172;2023-10-13T05:52:17;98443.69;;;16.57;100.00
65173;BME280;69059;52.218;5.172;2023-10-13T05:55:02;98433.44;;;16.51;100.00
65173;BME280;69059;52.218;5.172;2023-10-13T05:57:48;98423.16;;;16.54;100.00
65173;BME280;69059;52.218;5.172;2023-10-13T06:00:37;98432.16;;;16.48;100.00
65173;BME280;69059;52.218;5.172;2023-10-13T06:03:31;98428.50;;;16.44;100.00
65173;BME280;69059;52.218;5.172;2023-10-13T06:06:16;98427.75;;;16.38;100.00
65173;BME280;69059;52.218;5.172;2023-10-13T06:09:03;98428.25;;;16.40;100.00
65173;BME280;69059;52.218;5.172;2023-10-13T06:11:48;98426.44;;;16.36;100.00
65173;BME280;69059;52.218;5.172;2023-10-13T06:14:33;98434.91;;;16.33;100.00
65173;BME280;69059;52.218;5.172;2023-10-13T06:17:24;98424.38;;;16.33;100.00
65173;BME280;69059;52.218;5.172;2023-10-13T06:20:09;98416.16;;;16.39;100.00
65173;BME280;69059;52.218;5.172;2023-10-13T06:22:55;98414.03;;;16.41;100.00
65173;BME280;69059;52.218;5.172;2023-10-13T06:25:41;98404.56;;;16.40;100.00
65173;BME280;69059;52.218;5.172;2023-10-13T06:28:27;98387.63;;;16.52;100.00
65173;BME280;69059;52.218;5.172;2023-10-13T06:31:10;98399.03;;;16.42;100.00
65173;BME280;69059;52.218;5.172;2023-10-13T06:33:48;98381.63;;;16.46;100.00
65173;BME280;69059;52.218;5.172;2023-10-13T06:36:16;98397.75;;;16.34;100.00
65173;BME280;69059;52.218;5.172;2023-10-13T06:38:44;98395.91;;;16.35;100.00
65173;BME280;69059;52.218;5.172;2023-10-13T06:41:23;98401.69;;;16.37;100.00
65173;BME280;69059;52.218;5.172;2023-10-13T06:43:58;98401.38;;;16.43;100.00
65173;BME280;69059;52.218;5.172;2023-10-13T06:46:31;98403.75;;;16.45;100.00
65173;BME280;69059;52.218;5.172;2023-10-13T06:49:00;98404.28;;;16.42;100.00
65173;BME280;69059;52.218;5.172;2023-10-13T06:51:29;98399.03;;;16.42;100.00
65173;BME280;69059;52.218;5.172;2023-10-13T06:54:05;98404.81;;;16.44;100.00
65173;BME280;69059;52.218;5.172;2023-10-13T06:56:38;98399.53;;;16.44;100.00
65173;BME280;69059;52.218;5.172;2023-10-13T06:59:07;98411.06;;;16.48;100.00
65173;BME280;69059;52.218;5.172;2023-10-13T07:01:34;98388.38;;;16.57;100.00
65173;BME280;69059;52.218;5.172;2023-10-13T07:04:07;98392.06;;;16.56;100.00
65173;BME280;69059;52.218;5.172;2023-10-13T07:06:40;98393.63;;;16.62;100.00
65173;BME280;69059;52.218;5.172;2023-10-13T07:09:10;98383.56;;;16.69;100.00
65173;BME280;69059;52.218;5.172;2023-10-13T07:12:01;98369.81;;;16.72;100.00
65173;BME280;69059;52.218;5.172;2023-10-13T07:14:29;98369.47;;;16.84;100.00
65173;BME280;69059;52.218;5.172;2023-10-13T07:17:00;98356.56;;;16.82;100.00
65173;BME280;69059;52.218;5.172;2023-10-13T07:19:29;98361.78;;;16.88;100.00
65173;BME280;69059;52.218;5.172;2023-10-13T07:21:57;98361.19;;;16.96;100.00
65173;BME280;69059;52.218;5.172;2023-10-13T07:24:26;98353.56;;;16.94;100.00
65173;BME280;69059;52.218;5.172;2023-10-13T07:27:03;98354.53;;;16.98;100.00
65173;BME280;69059;52.218;5.172;2023-10-13T07:29:32;98356.31;;;17.08;100.00
65173;BME280;69059;52.218;5.172;2023-10-13T07:32:02;98349.47;;;17.07;100.00
65173;BME280;69059;52.218;5.172;2023-10-13T07:34:33;98333.66;;;17.07;100.00
65173;BME280;69059;52.218;5.172;2023-10-13T07:37:01;98331.22;;;17.10;100.00
65173;BME280;69059;52.218;5.172;2023-10-13T07:39:34;98339.88;;;17.16;100.00
65173;BME280;69059;52.218;5.172;2023-10-13T07:42:06;98324.06;;;17.16;100.00
65173;BME280;69059;52.218;5.172;2023-10-13T07:44:41;98307.16;;;17.17;100.00
65173;BME280;69059;52.218;5.172;2023-10-13T07:47:13;98340.31;;;17.23;100.00
65173;BME280;69059;52.218;5.172;2023-10-13T07:49:42;98335.81;;;17.24;100.00
65173;BME280;69059;52.218;5.172;2023-10-13T07:52:12;98314.94;;;17.27;100.00
65173;BME280;69059;52.218;5.172;2023-10-13T07:54:55;98312.81;;;17.29;100.00
65173;BME280;69059;52.218;5.172;2023-10-13T07:57:27;98295.75;;;17.45;100.00
65173;BME280;69059;52.218;5.172;2023-10-13T07:59:56;98302.50;;;17.33;100.00
65173;BME280;69059;52.218;5.172;2023-10-13T08:02:35;98289.22;;;17.38;100.00
65173;BME280;69059;52.218;5.172;2023-10-13T08:05:16;98286.09;;;17.36;100.00
65173;BME280;69059;52.218;5.172;2023-10-13T08:07:51;98282.63;;;17.40;100.00
65173;BME280;69059;52.218;5.172;2023-10-13T08:10:20;98269.38;;;17.45;100.00
65173;BME280;69059;52.218;5.172;2023-10-13T08:12:57;98280.34;;;17.52;100.00
65173;BME280;69059;52.218;5.172;2023-10-13T08:15:25;98269.22;;;17.55;100.00
65173;BME280;69059;52.218;5.172;2023-10-13T08:17:59;98232.28;;;17.55;100.00
65173;BME280;69059;52.218;5.172;2023-10-13T08:20:31;98224.25;;;17.66;100.00
65173;BME280;69059;52.218;5.172;2023-10-13T08:23:04;98226.59;;;17.67;100.00
65173;BME280;69059;52.218;5.172;2023-10-13T08:25:40;98221.84;;;17.69;100.00
65173;BME280;69059;52.218;5.172;2023-10-13T08:28:26;98217.25;;;17.75;100.00
65173;BME280;69059;52.218;5.172;2023-10-13T08:31:24;98213.47;;;17.81;100.00
65173;BME280;69059;52.218;5.172;2023-10-13T08:33:53;98181.25;;;17.65;100.00
65173;BME280;69059;52.218;5.172;2023-10-13T08:36:32;98203.31;;;17.88;100.00
65173;BME280;69059;52.218;5.172;2023-10-13T08:39:04;98213.81;;;17.93;100.00
65173;BME280;69059;52.218;5.172;2023-10-13T08:42:03;98200.22;;;18.00;100.00
65173;BME280;69059;52.218;5.172;2023-10-13T08:44:41;98197.09;;;17.98;100.00
65173;BME280;69059;52.218;5.172;2023-10-13T08:47:12;98204.13;;;18.02;100.00
65173;BME280;69059;52.218;5.172;2023-10-13T08:49:45;98205.22;;;18.01;100.00
65173;BME280;69059;52.218;5.172;2023-10-13T08:52:17;98199.63;;;18.03;100.00
65173;BME280;69059;52.218;5.172;2023-10-13T08:55:04;98198.69;;;18.12;100.00
65173;BME280;69059;52.218;5.172;2023-10-13T08:57:46;98225.25;;;18.02;100.00
65173;BME280;69059;52.218;5.172;2023-10-13T09:00:17;98246.03;;;18.09;100.00
65173;BME280;69059;52.218;5.172;2023-10-13T09:03:13;98274.34;;;18.03;100.00
65173;BME280;69059;52.218;5.172;2023-10-13T09:05:56;98282.75;;;18.05;100.00
65173;BME280;69059;52.218;5.172;2023-10-13T09:08:29;98294.03;;;18.11;100.00
65173;BME280;69059;52.218;5.172;2023-10-13T09:11:03;98285.63;;;18.09;100.00
65173;BME280;69059;52.218;5.172;2023-10-13T09:13:39;98298.31;;;18.07;100.00
65173;BME280;69059;52.218;5.172;2023-10-13T09:16:15;98307.31;;;18.06;100.00
65173;BME280;69059;52.218;5.172;2023-10-13T09:18:48;98332.72;;;18.02;100.00
65173;BME280;69059;52.218;5.172;2023-10-13T09:21:19;98313.78;;;18.13;100.00
65173;BME280;69059;52.218;5.172;2023-10-13T09:24:14;98313.44;;;18.20;100.00
65173;BME280;69059;52.218;5.172;2023-10-13T09:26:49;98335.75;;;18.27;100.00
65173;BME280;69059;52.218;5.172;2023-10-13T09:29:20;98348.81;;;18.19;100.00
65173;BME280;69059;52.218;5.172;2023-10-13T09:31:58;98357.25;;;18.21;100.00
65173;BME280;69059;52.218;5.172;2023-10-13T09:34:26;98352.81;;;18.16;100.00
65173;BME280;69059;52.218;5.172;2023-10-13T09:36:58;98355.97;;;18.18;100.00
65173;BME280;69059;52.218;5.172;2023-10-13T09:39:25;98358.38;;;18.15;100.00
65173;BME280;69059;52.218;5.172;2023-10-13T09:42:11;98351.47;;;18.19;100.00
65173;BME280;69059;52.218;5.172;2023-10-13T09:44:42;98346.41;;;18.22;100.00
65173;BME280;69059;52.218;5.172;2023-10-13T09:47:19;98358.09;;;18.35;100.00
65173;BME280;69059;52.218;5.172;2023-10-13T09:49:50;98369.56;;;18.25;100.00
65173;BME280;69059;52.218;5.172;2023-10-13T09:52:24;98374.50;;;18.32;100.00
65173;BME280;69059;52.218;5.172;2023-10-13T09:55:00;98385.19;;;18.41;100.00
65173;BME280;69059;52.218;5.172;2023-10-13T09:57:32;98395.41;;;18.47;100.00
65173;BME280;69059;52.218;5.172;2023-10-13T10:00:15;98414.38;;;18.49;100.00
65173;BME280;69059;52.218;5.172;2023-10-13T10:03:12;98425.16;;;18.53;100.00
65173;BME280;69059;52.218;5.172;2023-10-13T10:06:06;98439.31;;;18.62;100.00
65173;BME280;69059;52.218;5.172;2023-10-13T10:08:43;98468.44;;;18.57;100.00
65173;BME280;69059;52.218;5.172;2023-10-13T10:14:04;98536.03;;;18.82;100.00
65173;BME280;69059;52.218;5.172;2023-10-13T10:16:41;98584.97;;;18.79;100.00
65173;BME280;69059;52.218;5.172;2023-10-13T10:19:14;98597.16;;;18.75;100.00
65173;BME280;69059;52.218;5.172;2023-10-13T10:21:42;98587.72;;;18.88;100.00
65173;BME280;69059;52.218;5.172;2023-10-13T10:24:13;98621.53;;;18.91;100.00
65173;BME280;69059;52.218;5.172;2023-10-13T10:26:49;98659.34;;;18.91;100.00
65173;BME280;69059;52.218;5.172;2023-10-13T10:29:18;98698.38;;;19.00;100.00
65173;BME280;69059;52.218;5.172;2023-10-13T10:31:45;98744.69;;;19.16;100.00
65173;BME280;69059;52.218;5.172;2023-10-13T10:34:15;98817.50;;;19.32;100.00
65173;BME280;69059;52.218;5.172;2023-10-13T10:36:46;98882.22;;;19.40;100.00
65173;BME280;69059;52.218;5.172;2023-10-13T10:39:13;98958.78;;;19.60;100.00
65173;BME280;69059;52.218;5.172;2023-10-13T10:41:43;98999.84;;;19.57;100.00
65173;BME280;69059;52.218;5.172;2023-10-13T10:44:19;99066.41;;;19.70;100.00
65173;BME280;69059;52.218;5.172;2023-10-13T10:47:10;99130.41;;;19.77;100.00
65173;BME280;69059;52.218;5.172;2023-10-13T10:49:39;99180.81;;;19.95;100.00
65173;BME280;69059;52.218;5.172;2023-10-13T10:52:10;99219.88;;;19.80;100.00
65173;BME280;69059;52.218;5.172;2023-10-13T10:54:44;99258.44;;;19.96;100.00
65173;BME280;69059;52.218;5.172;2023-10-13T10:57:18;99294.13;;;19.64;100.00
65173;BME280;69059;52.218;5.172;2023-10-13T10:59:46;99278.41;;;19.78;100.00
65173;BME280;69059;52.218;5.172;2023-10-13T11:02:18;99284.84;;;19.67;100.00
65173;BME280;69059;52.218;5.172;2023-10-13T11:04:55;99308.16;;;19.65;100.00
65173;BME280;69059;52.218;5.172;2023-10-13T11:07:24;99325.06;;;19.69;100.00
65173;BME280;69059;52.218;5.172;2023-10-13T11:09:54;99337.78;;;19.72;100.00
65173;BME280;69059;52.218;5.172;2023-10-13T11:12:33;99341.28;;;19.57;100.00
65173;BME280;69059;52.218;5.172;2023-10-13T11:15:02;99346.31;;;19.59;100.00
65173;BME280;69059;52.218;5.172;2023-10-13T11:17:32;99348.66;;;19.65;100.00
65173;BME280;69059;52.218;5.172;2023-10-13T11:20:19;99351.88;;;19.62;100.00
65173;BME280;69059;52.218;5.172;2023-10-13T11:22:56;99388.38;;;19.65;100.00
65173;BME280;69059;52.218;5.172;2023-10-13T11:25:24;99390.69;;;19.77;100.00
65173;BME280;69059;52.218;5.172;2023-10-13T11:28:09;99440.78;;;19.68;100.00
65173;BME280;69059;52.218;5.172;2023-10-13T11:30:44;99442.91;;;19.66;100.00
65173;BME280;69059;52.218;5.172;2023-10-13T11:33:16;99446.09;;;19.63;100.00
65173;BME280;69059;52.218;5.172;2023-10-13T11:35:48;99489.19;;;19.84;100.00
65173;BME280;69059;52.218;5.172;2023-10-13T11:38:22;99473.31;;;19.79;100.00
65173;BME280;69059;52.218;5.172;2023-10-13T11:40:54;99509.00;;;19.97;100.00
65173;BME280;69059;52.218;5.172;2023-10-13T11:43:39;99539.44;;;19.99;100.00
65173;BME280;69059;52.218;5.172;2023-10-13T11:46:36;99626.00;;;20.14;100.00
65173;BME280;69059;52.218;5.172;2023-10-13T11:49:21;99660.72;;;20.18;100.00
65173;BME280;69059;52.218;5.172;2023-10-13T11:52:05;99669.50;;;20.08;100.00
65173;BME280;69059;52.218;5.172;2023-10-13T11:54:45;99686.19;;;20.14;100.00
65173;BME280;69059;52.218;5.172;2023-10-13T11:57:14;99721.41;;;20.24;100.00
65173;BME280;69059;52.218;5.172;2023-10-13T11:59:43;99716.88;;;20.20;100.00
65173;BME280;69059;52.218;5.172;2023-10-13T12:02:22;99715.56;;;20.17;100.00
65173;BME280;69059;52.218;5.172;2023-10-13T12:05:07;99740.22;;;20.18;100.00
65173;BME280;69059;52.218;5.172;2023-10-13T12:07:45;99731.47;;;20.17;100.00
65173;BME280;69059;52.218;5.172;2023-10-13T12:10:15;99723.00;;;20.10;100.00
65173;BME280;69059;52.218;5.172;2023-10-13T12:12:47;99741.03;;;20.13;100.00
65173;BME280;69059;52.218;5.172;2023-10-13T12:15:20;99739.19;;;20.14;100.00
65173;BME280;69059;52.218;5.172;2023-10-13T12:18:03;99742.63;;;20.09;100.00
65173;BME280;69059;52.218;5.172;2023-10-13T12:20:31;99749.25;;;20.07;100.00
65173;BME280;69059;52.218;5.172;2023-10-13T12:23:04;99746.03;;;20.15;100.00
65173;BME280;69059;52.218;5.172;2023-10-13T12:25:42;99746.84;;;20.20;100.00
65173;BME280;69059;52.218;5.172;2023-10-13T12:28:24;99750.78;;;20.28;100.00
65173;BME280;69059;52.218;5.172;2023-10-13T12:30:54;99759.03;;;20.26;100.00
65173;BME280;69059;52.218;5.172;2023-10-13T12:33:24;99771.19;;;20.27;100.00
65173;BME280;69059;52.218;5.172;2023-10-13T12:35:56;99770.13;;;20.33;100.00
65173;BME280;69059;52.218;5.172;2023-10-13T12:38:39;99765.13;;;20.37;100.00
65173;BME280;69059;52.218;5.172;2023-10-13T12:41:38;99771.72;;;20.29;100.00
65173;BME280;69059;52.218;5.172;2023-10-13T12:44:23;99778.09;;;20.18;100.00
65173;BME280;69059;52.218;5.172;2023-10-13T12:47:09;99784.44;;;20.32;100.00
65173;BME280;69059;52.218;5.172;2023-10-13T12:50:09;99767.22;;;20.15;100.00
65173;BME280;69059;52.218;5.172;2023-10-13T12:52:50;99771.75;;;20.14;100.00
65173;BME280;69059;52.218;5.172;2023-10-13T12:55:19;99764.59;;;20.10;100.00
65173;BME280;69059;52.218;5.172;2023-10-13T12:57:51;99774.91;;;20.16;100.00
65173;BME280;69059;52.218;5.172;2023-10-13T13:00:19;99773.09;;;20.12;100.00
65173;BME280;69059;52.218;5.172;2023-10-13T13:02:59;99750.56;;;19.94;100.00
65173;BME280;69059;52.218;5.172;2023-10-13T13:05:37;99724.63;;;19.81;100.00
65173;BME280;69059;52.218;5.172;2023-10-13T13:08:11;99697.88;;;19.62;100.00
65173;BME280;69059;52.218;5.172;2023-10-13T13:10:50;99677.47;;;19.67;100.00
65173;BME280;69059;52.218;5.172;2023-10-13T13:13:19;99655.78;;;19.60;100.00
65173;BME280;69059;52.218;5.172;2023-10-13T13:15:51;99645.97;;;19.56;100.00
65173;BME280;69059;52.218;5.172;2023-10-13T13:18:19;99610.25;;;19.58;100.00
65173;BME280;69059;52.218;5.172;2023-10-13T13:20:47;99582.44;;;19.46;100.00
65173;BME280;69059;52.218;5.172;2023-10-13T13:23:20;99566.81;;;19.39;100.00
65173;BME280;69059;52.218;5.172;2023-10-13T13:25:53;99543.00;;;19.39;100.00
65173;BME280;69059;52.218;5.172;2023-10-13T13:28:23;99527.13;;;19.39;100.00
65173;BME280;69059;52.218;5.172;2023-10-13T13:30:55;99529.53;;;19.30;100.00
65173;BME280;69059;52.218;5.172;2023-10-13T13:33:23;99511.78;;;19.26;100.00
65173;BME280;69059;52.218;5.172;2023-10-13T13:35:55;99514.97;;;19.33;100.00
65173;BME280;69059;52.218;5.172;2023-10-13T13:38:26;99498.03;;;19.49;100.00